Time;durP1;ratioP1;P1;durP2;ratioP2;P2;SDS_P1;SDS_P2;PMS_P1;PMS_P2;Temp;Humidity;BMP_temperature;BMP_pressure;BME280_temperature;BME280_humidity;BME280_pressure;Samples;Min_cycle;Max_cycle;Signal;HPM_P1;HPM_P2
2021/05/25 00:00:22;;;;;;;0.85;0.70;;;;;;;10.76;44.04;100508.44;7889010;28;20036;-67
2021/05/25 00:04:13;;;;;;;1.08;0.60;;;;;;;10.69;43.90;100500.19;7890255;28;20121;-67
2021/05/25 00:08:04;;;;;;;1.25;0.63;;;;;;;10.65;44.06;100506.59;7891138;28;20046;-67
2021/05/25 00:11:54;;;;;;;0.80;0.75;;;;;;;10.59;43.64;100507.03;7890597;28;20080;-67
2021/05/25 00:15:52;;;;;;;3.83;0.60;;;;;;;10.52;44.16;100504.03;7888302;28;20069;-67
2021/05/25 00:19:43;;;;;;;0.47;0.47;;;;;;;10.53;44.26;100505.66;7890035;28;20042;-67
2021/05/25 00:23:33;;;;;;;0.55;0.55;;;;;;;10.53;44.25;100512.75;7889338;28;20083;-67
2021/05/25 00:27:24;;;;;;;0.82;0.50;;;;;;;10.52;44.34;100511.06;7892733;28;20034;-67
2021/05/25 00:31:15;;;;;;;1.92;0.85;;;;;;;10.48;44.42;100514.81;7875856;28;20050;-67
2021/05/25 00:35:06;;;;;;;0.70;0.70;;;;;;;10.42;44.60;100505.56;7897456;28;20049;-67
2021/05/25 00:38:57;;;;;;;0.70;0.70;;;;;;;10.41;44.51;100516.19;7896729;28;20062;-67
2021/05/25 00:42:48;;;;;;;2.20;0.77;;;;;;;10.34;44.58;100505.28;7894767;28;20041;-67
2021/05/25 00:46:39;;;;;;;0.88;0.55;;;;;;;10.32;44.67;100522.94;7892427;28;20034;-67
2021/05/25 00:50:30;;;;;;;1.50;0.70;;;;;;;10.28;44.57;100524.06;7892896;28;20034;-67
2021/05/25 00:54:21;;;;;;;0.43;0.43;;;;;;;10.22;44.70;100522.75;7895829;28;20116;-67
2021/05/25 00:58:11;;;;;;;0.30;0.30;;;;;;;10.17;44.65;100516.13;7892164;28;20153;-67
2021/05/25 01:02:02;;;;;;;0.55;0.55;;;;;;;10.12;44.53;100521.69;7893287;28;20097;-67
2021/05/25 01:05:53;;;;;;;2.65;0.70;;;;;;;10.07;44.50;100518.53;7895688;28;21775;-67
2021/05/25 01:09:44;;;;;;;1.10;0.82;;;;;;;10.02;44.64;100528.53;7894704;28;20069;-67
2021/05/25 01:17:37;;;;;;;1.05;0.60;;;;;;;9.93;44.58;100523.06;7893076;28;20141;-67
2021/05/25 01:21:27;;;;;;;1.60;0.55;;;;;;;9.84;44.79;100523.69;7875755;28;20057;-67
2021/05/25 01:25:19;;;;;;;1.23;0.70;;;;;;;9.83;44.64;100522.00;7893146;28;20034;-67
2021/05/25 01:29:09;;;;;;;0.60;0.60;;;;;;;9.77;44.69;100526.75;7889669;28;20070;-67
2021/05/25 01:33:03;;;;;;;0.45;0.45;;;;;;;9.71;44.79;100531.56;7892959;28;20031;-67
2021/05/25 01:36:54;;;;;;;0.50;0.50;;;;;;;9.61;44.94;100526.13;7893691;28;20057;-67
2021/05/25 01:40:46;;;;;;;1.70;0.75;;;;;;;9.54;44.84;100524.81;7892806;28;20069;-67
2021/05/25 01:44:36;;;;;;;0.73;0.40;;;;;;;9.55;45.26;100529.13;7892548;28;20018;-67
2021/05/25 01:48:28;;;;;;;0.85;0.77;;;;;;;9.52;44.89;100534.59;7892932;28;20057;-67
2021/05/25 01:52:19;;;;;;;1.20;0.50;;;;;;;9.47;45.09;100525.34;7891795;28;20027;-67
2021/05/25 01:56:10;;;;;;;0.80;0.80;;;;;;;9.45;45.06;100519.38;7893718;28;20053;-67
2021/05/25 02:00:01;;;;;;;0.90;0.60;;;;;;;9.47;45.10;100533.22;7892916;28;20134;-67
2021/05/25 02:03:51;;;;;;;1.48;0.50;;;;;;;9.44;44.93;100525.56;7890491;28;20034;-67
2021/05/25 02:07:46;;;;;;;0.55;0.55;;;;;;;9.45;45.31;100529.88;7893520;28;20035;-67
2021/05/25 02:11:37;;;;;;;0.50;0.50;;;;;;;9.43;45.07;100535.22;7889995;28;20080;-67
2021/05/25 02:15:28;;;;;;;0.60;0.50;;;;;;;9.42;45.19;100530.06;7891951;28;20042;-67
2021/05/25 02:19:19;;;;;;;0.50;0.50;;;;;;;9.41;45.25;100531.03;7891238;28;20033;-67
2021/05/25 02:23:10;;;;;;;0.50;0.50;;;;;;;9.41;45.23;100537.06;7889650;28;20042;-67
2021/05/25 02:27:02;;;;;;;1.02;0.52;;;;;;;9.40;45.44;100539.81;7888137;28;20027;-68
2021/05/25 02:30:52;;;;;;;0.50;0.43;;;;;;;9.41;45.17;100546.75;7890683;28;20650;-68
2021/05/25 02:34:43;;;;;;;0.47;0.47;;;;;;;9.40;45.27;100535.41;7890293;28;20753;-67
2021/05/25 02:38:34;;;;;;;1.30;0.60;;;;;;;9.41;45.42;100537.06;7891781;28;20046;-67
2021/05/25 02:42:24;;;;;;;0.50;0.40;;;;;;;9.42;45.26;100537.91;7888536;28;20065;-67
2021/05/25 02:46:15;;;;;;;0.60;0.60;;;;;;;9.39;45.38;100536.34;7889166;28;20050;-67
2021/05/25 02:50:07;;;;;;;0.40;0.40;;;;;;;9.42;45.64;100540.53;7891085;28;20026;-67
2021/05/25 02:53:58;;;;;;;0.50;0.50;;;;;;;9.44;45.44;100547.38;7891734;28;20030;-67
2021/05/25 02:57:49;;;;;;;0.40;0.40;;;;;;;9.41;45.49;100549.38;7889300;28;20704;-67
2021/05/25 03:01:40;;;;;;;0.38;0.38;;;;;;;9.38;45.66;100549.56;7888662;28;20038;-67
2021/05/25 03:05:31;;;;;;;0.35;0.30;;;;;;;9.39;45.53;100557.31;7891581;28;20061;-67
2021/05/25 03:09:22;;;;;;;0.40;0.40;;;;;;;9.39;45.53;100557.31;7888039;28;20038;-67
2021/05/25 03:13:13;;;;;;;2.22;0.60;;;;;;;9.39;45.62;100552.09;7891178;28;20088;-67
2021/05/25 03:17:03;;;;;;;0.45;0.45;;;;;;;9.39;46.13;100557.31;7888955;28;20516;-67
2021/05/25 03:20:54;;;;;;;0.98;0.55;;;;;;;9.40;45.83;100559.00;7889394;28;20049;-67
2021/05/25 03:24:45;;;;;;;0.60;0.60;;;;;;;9.41;46.08;100559.84;7887724;28;20034;-67
2021/05/25 03:28:35;;;;;;;0.70;0.70;;;;;;;9.42;45.91;100564.13;7888723;28;20046;-67
2021/05/25 03:32:26;;;;;;;0.50;0.50;;;;;;;9.42;46.19;100566.75;7889849;28;20042;-66
2021/05/25 03:36:16;;;;;;;1.70;0.70;;;;;;;9.42;46.38;100561.50;7889142;28;20097;-67
2021/05/25 03:40:09;;;;;;;1.30;0.60;;;;;;;9.42;46.48;100564.97;7891475;28;20030;-67
2021/05/25 03:44:01;;;;;;;0.60;0.60;;;;;;;9.40;46.01;100566.88;7888544;28;20065;-67
2021/05/25 03:47:52;;;;;;;0.60;0.60;;;;;;;9.41;46.53;100572.97;7888840;28;20043;-67
2021/05/25 03:51:43;;;;;;;0.47;0.47;;;;;;;9.42;46.70;100564.97;7889207;28;20129;-67
2021/05/25 03:59:27;;;;;;;0.50;0.50;;;;;;;9.45;46.49;100571.81;7892420;28;20058;-67
2021/05/25 04:03:18;;;;;;;0.68;0.50;;;;;;;9.44;46.71;100565.72;7896138;28;20055;-67
2021/05/25 04:07:08;;;;;;;0.77;0.60;;;;;;;9.47;46.61;100572.53;7897248;28;20439;-67
2021/05/25 04:10:59;;;;;;;0.52;0.52;;;;;;;9.46;46.61;100569.06;7894771;28;20049;-67
2021/05/25 04:14:50;;;;;;;0.50;0.50;;;;;;;9.46;47.07;100569.06;7896160;28;20719;-67
2021/05/25 04:18:41;;;;;;;0.68;0.68;;;;;;;9.45;46.83;100563.97;7895412;28;20495;-67
2021/05/25 04:22:32;;;;;;;1.60;0.60;;;;;;;9.48;47.12;100569.00;7893969;28;20534;-67
2021/05/25 04:26:24;;;;;;;1.27;0.60;;;;;;;9.50;47.12;100570.56;7890186;28;20032;-67
2021/05/25 04:30:15;;;;;;;0.35;0.35;;;;;;;9.53;46.78;100575.63;7894230;28;20122;-67
2021/05/25 04:34:05;;;;;;;3.35;0.68;;;;;;;9.58;47.27;100578.75;7895074;28;20035;-67
2021/05/25 04:37:57;;;;;;;1.02;0.77;;;;;;;9.65;47.32;100572.19;7894320;28;20054;-67
2021/05/25 04:41:48;;;;;;;0.60;0.60;;;;;;;9.71;47.29;100582.25;7896334;28;20045;-66
2021/05/25 04:45:39;;;;;;;0.40;0.40;;;;;;;9.78;47.50;100577.44;7894198;28;20046;-67
2021/05/25 04:49:32;;;;;;;0.40;0.40;;;;;;;9.87;47.58;100592.53;7893260;28;20034;-67
2021/05/25 04:53:23;;;;;;;0.50;0.50;;;;;;;9.90;47.54;100594.97;7890759;28;20129;-67
2021/05/25 04:57:14;;;;;;;0.60;0.60;;;;;;;9.90;47.59;100589.72;7888062;28;20047;-67
2021/05/25 05:01:04;;;;;;;0.93;0.60;;;;;;;9.92;47.83;100589.59;7882887;28;20871;-67
2021/05/25 05:04:55;;;;;;;0.50;0.50;;;;;;;9.91;47.67;100591.38;7891200;28;20027;-68
2021/05/25 05:08:46;;;;;;;0.80;0.50;;;;;;;9.88;47.52;100591.59;7888059;28;20049;-67
2021/05/25 05:12:37;;;;;;;0.68;0.50;;;;;;;9.88;47.61;100594.22;7894161;28;20037;-67
2021/05/25 05:16:28;;;;;;;1.02;0.60;;;;;;;9.86;47.72;100592.66;7895559;28;20054;-67
2021/05/25 05:20:18;;;;;;;1.45;0.90;;;;;;;9.83;47.83;100593.69;7890954;28;20042;-67
2021/05/25 05:24:09;;;;;;;0.55;0.52;;;;;;;9.79;47.77;100597.47;7891153;28;20762;-67
2021/05/25 05:28:00;;;;;;;2.83;0.73;;;;;;;9.78;47.93;100601.06;7891744;28;20045;-67
2021/05/25 05:31:50;;;;;;;0.57;0.57;;;;;;;9.79;48.00;100610.59;7893166;28;21760;-68
2021/05/25 05:35:41;;;;;;;0.50;0.50;;;;;;;9.77;47.97;100604.63;7893733;28;20104;-68
2021/05/25 05:39:32;;;;;;;0.60;0.60;;;;;;;9.84;48.16;100610.28;7891696;28;20519;-68
2021/05/25 05:43:25;;;;;;;1.83;0.63;;;;;;;9.91;48.31;100603.69;7886622;28;20034;-68
2021/05/25 05:47:16;;;;;;;0.82;0.40;;;;;;;9.90;48.36;100610.72;7892654;28;20540;-68
2021/05/25 05:51:07;;;;;;;0.88;0.57;;;;;;;9.88;48.16;100609.13;7893596;28;20042;-68
2021/05/25 05:54:57;;;;;;;0.73;0.50;;;;;;;9.82;48.35;100605.16;7892998;28;20644;-68
2021/05/25 05:58:49;;;;;;;0.50;0.50;;;;;;;9.81;48.42;100610.50;7888523;28;20050;-68
2021/05/25 06:02:40;;;;;;;0.70;0.60;;;;;;;9.74;48.35;100603.00;7874787;28;20043;-68
2021/05/25 06:06:30;;;;;;;0.50;0.50;;;;;;;9.79;48.59;100613.22;7894933;28;20476;-68
2021/05/25 06:10:21;;;;;;;0.88;0.80;;;;;;;9.81;48.48;100613.97;7891718;28;20031;-68
2021/05/25 06:14:12;;;;;;;0.50;0.50;;;;;;;9.81;48.68;100623.59;7893486;28;20053;-69
2021/05/25 06:18:03;;;;;;;1.10;0.57;;;;;;;9.79;48.58;100628.94;7893286;28;20046;-69
2021/05/25 06:21:53;;;;;;;0.95;0.73;;;;;;;9.75;48.91;100616.97;7889917;28;20184;-69
2021/05/25 06:25:45;;;;;;;2.95;0.70;;;;;;;9.72;48.98;100615.41;7889570;28;20038;-69
2021/05/25 06:29:36;;;;;;;0.60;0.60;;;;;;;9.71;48.75;100618.97;7890673;28;20034;-69
2021/05/25 06:33:27;;;;;;;3.47;0.68;;;;;;;9.73;48.77;100616.25;7891832;28;20777;-68
2021/05/25 06:37:18;;;;;;;0.55;0.55;;;;;;;9.75;48.78;100614.34;7892154;28;20076;-69
2021/05/25 06:41:09;;;;;;;1.58;0.75;;;;;;;9.86;48.88;100624.16;7893193;28;20038;-69
2021/05/25 06:44:59;;;;;;;1.45;0.80;;;;;;;10.32;49.23;100616.63;7887966;28;20434;-69
2021/05/25 06:48:50;;;;;;;0.60;0.60;;;;;;;10.70;49.26;100620.06;7873694;28;20046;-68
2021/05/25 06:52:42;;;;;;;0.50;0.50;;;;;;;10.78;49.10;100627.44;7889766;28;20499;-69
2021/05/25 06:56:33;;;;;;;0.43;0.43;;;;;;;10.79;49.08;100634.34;7891333;28;20030;-68
2021/05/25 07:00:24;;;;;;;0.45;0.45;;;;;;;10.85;48.91;100647.06;7891049;28;20503;-69
2021/05/25 07:04:14;;;;;;;0.60;0.60;;;;;;;10.85;48.82;100645.28;7890221;28;20038;-69
2021/05/25 07:08:05;;;;;;;0.43;0.43;;;;;;;10.84;48.78;100661.13;7889183;28;20501;-69
2021/05/25 07:11:56;;;;;;;0.70;0.50;;;;;;;10.81;48.72;100664.81;7890304;28;20042;-68
2021/05/25 07:15:46;;;;;;;0.47;0.47;;;;;;;10.85;48.66;100671.53;7889022;28;20410;-69
2021/05/25 07:19:37;;;;;;;0.50;0.50;;;;;;;10.91;48.74;100676.34;7890903;28;20045;-68
2021/05/25 07:23:28;;;;;;;0.50;0.50;;;;;;;11.41;49.11;100683.25;7886796;28;20058;-69
2021/05/25 07:27:22;;;;;;;0.50;0.50;;;;;;;12.24;48.68;100673.56;7890006;28;20129;-69
2021/05/25 07:31:12;;;;;;;3.75;0.80;;;;;;;13.56;48.11;100673.66;7893428;28;20034;-69
2021/05/25 07:35:04;;;;;;;0.38;0.38;;;;;;;14.71;47.29;100663.88;7898639;28;20047;-69
2021/05/25 07:38:55;;;;;;;0.40;0.40;;;;;;;16.06;46.23;100683.50;7893433;28;20043;-69
2021/05/25 07:42:46;;;;;;;0.60;0.60;;;;;;;16.56;45.18;100685.94;7888944;28;20131;-69
2021/05/25 07:46:37;;;;;;;0.50;0.50;;;;;;;16.62;45.05;100694.16;7891728;28;20058;-69
2021/05/25 07:50:28;;;;;;;1.05;0.50;;;;;;;16.33;44.92;100698.69;7892245;28;20122;-69
2021/05/25 10:00:24;;;;;;;0.85;0.50;;;;;;;8.36;54.13;100867.56;8192410;27;24452;-70
2021/05/25 10:04:15;;;;;;;0.77;0.60;;;;;;;9.00;52.68;100866.41;8109233;28;20516;-69
2021/05/25 10:08:07;;;;;;;0.50;0.50;;;;;;;9.63;51.75;100873.03;8115135;28;20623;-70
2021/05/25 10:11:59;;;;;;;5.50;1.08;;;;;;;10.16;51.22;100858.31;8103497;28;20024;-68
2021/05/25 10:15:51;;;;;;;2.92;1.10;;;;;;;10.62;50.82;100870.16;8106732;27;20037;-69
2021/05/25 10:19:41;;;;;;;2.63;1.20;;;;;;;10.94;50.46;100873.25;8137344;27;20046;-69
2021/05/25 10:23:33;;;;;;;1.75;1.20;;;;;;;11.24;50.29;100870.31;8114061;27;20039;-70
2021/05/25 10:27:28;;;;;;;1.20;1.00;;;;;;;11.60;50.33;100872.25;8151874;27;20694;-69
2021/05/25 10:31:33;;;;;;;2.22;1.23;;;;;;;11.87;50.08;100861.53;8137870;27;20038;-70
2021/05/25 10:35:23;;;;;;;3.28;1.00;;;;;;;11.90;49.88;100888.47;8135110;27;20050;-69
2021/05/25 10:39:34;;;;;;;1.02;0.80;;;;;;;11.85;49.57;100885.34;8110987;27;20023;-70
2021/05/25 10:43:34;;;;;;;2.35;0.63;;;;;;;11.85;49.36;100897.66;8113792;28;20043;-69
2021/05/25 10:47:34;;;;;;;1.58;0.65;;;;;;;11.92;49.55;100904.16;8119114;27;20390;-69
2021/05/25 10:51:51;;;;;;;2.08;1.02;;;;;;;11.93;49.38;100921.66;8131588;27;20122;-69
2021/05/25 10:55:45;;;;;;;0.90;0.90;;;;;;;11.85;49.13;100903.78;8125348;27;20027;-70
2021/05/25 11:00:13;;;;;;;0.90;0.70;;;;;;;11.77;49.26;100882.41;8124544;27;20057;-68
2021/05/25 11:04:12;;;;;;;1.05;0.77;;;;;;;11.82;49.14;100885.56;8127655;27;20146;-68
2021/05/25 11:08:09;;;;;;;1.15;1.00;;;;;;;11.92;49.19;100888.38;8111512;27;20371;-68
2021/05/25 11:12:10;;;;;;;1.70;1.10;;;;;;;12.04;49.00;100900.66;8109144;27;20031;-69
2021/05/25 11:16:25;;;;;;;2.13;1.02;;;;;;;12.23;49.40;100889.63;8111614;27;20039;-69
2021/05/25 11:24:59;;;;;;;6.55;1.30;;;;;;;12.65;49.33;100883.88;8072004;27;20031;-69
2021/05/25 11:29:15;;;;;;;4.15;1.60;;;;;;;12.83;49.82;100892.22;8106086;28;20034;-69
2021/05/25 11:33:06;;;;;;;2.42;1.60;;;;;;;12.97;49.77;100874.38;8070656;27;20043;-69
2021/05/25 11:37:00;;;;;;;1.50;1.40;;;;;;;13.05;49.95;100881.75;8086709;28;20030;-69
2021/05/25 11:40:51;;;;;;;2.88;1.27;;;;;;;13.22;49.92;100868.06;8114431;27;20066;-69
2021/05/25 11:44:44;;;;;;;3.70;1.50;;;;;;;13.36;49.96;100859.94;8105557;28;20027;-69
2021/05/25 11:48:35;;;;;;;2.70;1.30;;;;;;;13.41;49.64;100870.97;8104915;28;21336;-69
2021/05/25 11:52:29;;;;;;;2.38;1.30;;;;;;;13.50;49.42;100901.09;8086814;28;20541;-68
2021/05/25 11:56:20;;;;;;;2.97;1.10;;;;;;;13.39;48.85;100967.03;8105799;28;20028;-69
2021/05/25 12:00:16;;;;;;;1.15;0.60;;;;;;;13.03;48.39;100967.19;8106698;27;20476;-69
2021/05/25 12:04:07;;;;;;;2.25;1.00;;;;;;;12.71;48.41;100986.22;8109881;27;20714;-69
2021/05/25 12:08:03;;;;;;;2.25;0.60;;;;;;;12.45;48.08;100980.19;8103604;27;20034;-69
2021/05/25 12:12:01;;;;;;;0.75;0.75;;;;;;;12.20;48.11;100976.78;8088187;27;20028;-70
2021/05/25 12:15:54;;;;;;;0.73;0.73;;;;;;;11.97;47.91;100983.69;8091408;27;20051;-69
2021/05/25 12:19:54;;;;;;;0.60;0.60;;;;;;;11.84;48.08;100996.84;8107909;27;20479;-69
2021/05/25 12:23:45;;;;;;;1.08;0.98;;;;;;;11.79;48.10;100987.56;8107267;27;20114;-69
2021/05/25 12:27:36;;;;;;;2.92;0.85;;;;;;;11.86;48.28;100991.47;8108133;27;20046;-68
2021/05/25 12:31:30;;;;;;;1.60;0.85;;;;;;;11.95;48.66;100994.31;8103782;28;20043;-69
2021/05/25 12:35:26;;;;;;;2.60;0.80;;;;;;;12.07;48.45;101006.59;8093978;28;20027;-69
2021/05/25 12:39:29;;;;;;;1.17;0.70;;;;;;;12.12;48.62;101016.81;8104214;28;20108;-71
2021/05/25 12:43:23;;;;;;;2.95;1.15;;;;;;;12.17;48.78;101001.53;8098327;28;20093;-69
2021/05/25 12:47:15;;;;;;;2.25;0.95;;;;;;;12.22;49.32;101003.84;8103146;28;20406;-69
2021/05/25 12:51:08;;;;;;;0.70;0.70;;;;;;;12.26;48.81;100997.41;8103806;27;20115;-69
2021/05/25 12:55:13;;;;;;;0.90;0.70;;;;;;;12.29;48.73;101002.47;8103283;28;20035;-69
2021/05/25 12:59:16;;;;;;;1.00;0.60;;;;;;;12.36;49.02;100990.53;8103145;28;20020;-71
2021/05/25 13:03:27;;;;;;;1.33;0.90;;;;;;;12.42;49.06;101000.63;8084305;28;20607;-68
2021/05/25 13:07:28;;;;;;;0.95;0.60;;;;;;;12.45;48.84;101005.69;8079906;28;20037;-71
2021/05/25 13:11:19;;;;;;;4.03;0.57;;;;;;;12.49;48.70;100989.53;8083888;28;20039;-69
2021/05/25 13:15:10;;;;;;;2.55;0.70;;;;;;;12.52;48.50;100999.00;8102935;28;20044;-69
2021/05/25 13:19:01;;;;;;;1.70;0.93;;;;;;;12.56;48.57;101021.56;8118293;27;20428;-69
2021/05/25 13:22:52;;;;;;;1.48;0.90;;;;;;;12.60;48.45;101006.41;8119792;27;20043;-68
2021/05/25 13:26:43;;;;;;;3.63;0.75;;;;;;;12.61;48.31;101014.19;8115208;27;20035;-70
2021/05/25 13:30:43;;;;;;;1.85;0.70;;;;;;;12.66;48.21;101027.88;8080472;28;20044;-69
2021/05/25 13:34:33;;;;;;;1.55;0.80;;;;;;;12.68;48.10;101022.53;8072439;28;20087;-69
2021/05/25 13:38:25;;;;;;;1.92;1.00;;;;;;;12.65;47.92;101034.09;8057543;28;20029;-71
2021/05/25 13:42:15;;;;;;;0.68;0.60;;;;;;;12.58;48.18;101034.66;8075374;28;20400;-69
2021/05/25 13:46:06;;;;;;;1.45;0.80;;;;;;;12.46;48.03;101029.28;8078003;28;20541;-69
2021/05/25 13:49:57;;;;;;;2.78;0.82;;;;;;;12.48;48.16;101024.75;8053257;28;20078;-69
2021/05/25 13:53:48;;;;;;;4.40;0.68;;;;;;;12.48;48.20;101022.09;8050671;28;20116;-70
2021/05/25 13:57:41;;;;;;;3.65;0.98;;;;;;;12.51;48.15;101021.91;8049694;28;20070;-71
2021/05/25 14:01:32;;;;;;;1.35;0.82;;;;;;;12.55;48.35;101019.91;8053747;28;20464;-70
2021/05/25 14:05:22;;;;;;;2.65;1.17;;;;;;;12.60;48.35;101032.78;8055871;28;20031;-69
2021/05/25 14:09:14;;;;;;;1.48;0.60;;;;;;;12.63;48.19;101028.13;8054996;28;20784;-69
2021/05/25 14:13:05;;;;;;;0.63;0.60;;;;;;;12.66;48.19;101011.22;8055170;28;20047;-69
2021/05/25 14:16:55;;;;;;;1.05;0.80;;;;;;;12.69;48.03;101017.13;8055423;28;20028;-72
2021/05/25 14:20:46;;;;;;;2.05;0.60;;;;;;;12.71;47.73;101004.69;8050566;28;20039;-69
2021/05/25 14:24:37;;;;;;;0.57;0.50;;;;;;;12.74;48.00;100995.69;8054957;28;20050;-69
2021/05/25 14:28:28;;;;;;;0.75;0.60;;;;;;;12.67;47.89;100979.50;8052553;28;20039;-69
2021/05/25 14:32:19;;;;;;;0.60;0.60;;;;;;;12.73;47.63;100994.00;8053794;28;20070;-71
2021/05/25 14:36:11;;;;;;;0.98;0.85;;;;;;;12.76;47.70;100996.44;8052845;28;20036;-69
2021/05/25 14:40:03;;;;;;;1.25;1.00;;;;;;;12.69;47.53;100993.41;8053526;28;20050;-70
2021/05/25 14:43:53;;;;;;;0.60;0.60;;;;;;;12.71;47.43;101002.03;8055676;28;20036;-69
2021/05/25 14:47:44;;;;;;;0.80;0.63;;;;;;;12.64;47.37;101016.59;8060639;28;20058;-68
2021/05/25 14:51:35;;;;;;;1.58;0.68;;;;;;;12.61;47.29;101023.91;8054440;28;20581;-70
2021/05/25 14:55:31;;;;;;;1.02;0.90;;;;;;;12.54;47.58;101021.69;8060504;28;20036;-68
2021/05/25 14:59:22;;;;;;;4.00;1.35;;;;;;;12.58;47.93;101016.22;8060207;28;20396;-69
2021/05/25 15:03:18;;;;;;;1.90;0.90;;;;;;;12.64;47.92;100999.97;8049420;28;20097;-68
2021/05/25 15:07:20;;;;;;;6.07;0.93;;;;;;;12.67;48.12;101003.22;8058638;28;20407;-69
2021/05/25 15:11:10;;;;;;;0.73;0.60;;;;;;;12.71;48.00;101004.69;8059073;28;20063;-69
2021/05/25 15:15:01;;;;;;;0.70;0.70;;;;;;;12.82;48.28;101001.25;8059026;28;20061;-68
2021/05/25 15:18:52;;;;;;;1.13;0.80;;;;;;;12.88;48.59;101000.81;8057881;28;20039;-69
2021/05/25 15:22:43;;;;;;;1.48;0.80;;;;;;;12.86;48.68;100997.44;8058589;28;20030;-70
2021/05/25 15:26:34;;;;;;;4.35;1.35;;;;;;;12.90;48.51;101006.81;8059476;28;20398;-69
2021/05/25 15:30:37;;;;;;;2.30;1.10;;;;;;;12.88;48.30;101009.56;8058607;28;20067;-69
2021/05/25 15:34:28;;;;;;;4.43;0.98;;;;;;;12.85;48.41;101015.03;8057336;28;20040;-69
2021/05/25 15:38:19;;;;;;;1.75;0.75;;;;;;;12.80;48.37;101006.66;8060188;28;20032;-68
2021/05/25 15:42:10;;;;;;;1.23;0.80;;;;;;;12.78;48.40;100998.00;8058813;28;20140;-69
2021/05/25 15:46:01;;;;;;;0.95;0.80;;;;;;;12.73;48.62;100999.28;8057317;28;20499;-71
2021/05/25 15:49:51;;;;;;;1.98;0.90;;;;;;;12.67;48.38;101008.50;8057728;28;20381;-70
2021/05/25 15:53:42;;;;;;;3.42;0.98;;;;;;;12.66;48.48;101005.97;8055239;28;21067;-69
2021/05/25 15:57:33;;;;;;;3.22;0.90;;;;;;;12.62;48.44;101002.72;8053827;28;20051;-67
2021/05/25 16:01:24;;;;;;;1.63;0.93;;;;;;;12.48;48.62;100997.53;8056906;28;20105;-67
2021/05/25 16:05:16;;;;;;;3.28;1.15;;;;;;;12.50;48.47;101016.75;8057599;28;20020;-70
2021/05/25 16:09:07;;;;;;;0.85;0.70;;;;;;;12.43;48.33;101026.84;8059112;28;20059;-71
2021/05/25 16:12:58;;;;;;;1.27;0.65;;;;;;;12.34;48.44;101013.53;8058594;28;20043;-72
2021/05/25 16:16:49;;;;;;;0.80;0.80;;;;;;;12.30;48.36;101010.25;8039621;28;20036;-71
2021/05/25 16:20:40;;;;;;;2.25;1.00;;;;;;;12.27;48.52;101014.91;8057929;28;20036;-69
2021/05/25 16:24:31;;;;;;;1.65;0.80;;;;;;;12.22;48.60;101007.34;8058211;28;20043;-70
2021/05/25 16:28:23;;;;;;;2.50;0.90;;;;;;;12.17;48.69;100998.91;8058587;28;20028;-71
2021/05/25 16:32:14;;;;;;;1.48;0.63;;;;;;;12.16;48.59;101006.91;8057295;28;20048;-68
2021/05/25 16:36:05;;;;;;;0.55;0.55;;;;;;;12.13;48.77;101004.50;8056496;28;20039;-68
2021/05/25 16:39:56;;;;;;;1.15;0.77;;;;;;;12.05;48.50;101000.63;8057615;28;20031;-72
2021/05/25 16:43:46;;;;;;;1.30;0.82;;;;;;;12.06;48.69;101001.47;8058000;28;20430;-72
2021/05/25 16:47:37;;;;;;;1.27;0.77;;;;;;;12.02;48.64;100998.19;8056920;28;20051;-72
2021/05/25 16:51:28;;;;;;;1.30;0.60;;;;;;;12.01;48.80;100995.66;8055882;28;20106;-72
2021/05/25 16:55:20;;;;;;;1.35;0.68;;;;;;;12.07;49.05;101000.50;8057664;28;20043;-72
2021/05/25 16:59:11;;;;;;;1.85;0.80;;;;;;;12.15;48.94;101007.84;8056516;28;20031;-71
2021/05/25 17:03:16;;;;;;;0.60;0.60;;;;;;;12.15;49.00;101010.47;8055939;28;20040;-71
2021/05/25 17:08:08;;;;;;;0.60;0.60;;;;;;;12.06;48.87;100997.00;8055918;28;20593;-73
2021/05/25 17:11:35;;;;;;;2.08;1.27;;;;;;;12.08;48.94;101012.72;8051972;28;20059;-74
2021/05/25 17:19:35;;;;;;;0.70;0.70;;;;;;;11.99;49.01;101010.72;8056536;28;20043;-74
2021/05/25 17:23:29;;;;;;;2.72;1.00;;;;;;;11.92;48.98;101009.47;8056020;28;20035;-72
2021/05/25 17:27:20;;;;;;;1.00;0.70;;;;;;;11.86;49.18;100992.31;8055418;28;20028;-73
2021/05/25 17:31:10;;;;;;;1.67;1.10;;;;;;;11.82;49.11;100987.34;8056279;28;20052;-72
2021/05/25 17:35:01;;;;;;;1.20;0.90;;;;;;;11.82;49.10;101000.50;8053238;28;20036;-72
2021/05/25 17:38:52;;;;;;;1.60;1.10;;;;;;;11.78;49.45;101002.53;8056249;28;20901;-72
2021/05/25 17:42:45;;;;;;;1.50;0.82;;;;;;;11.71;49.43;100993.38;8055212;28;20035;-72
2021/05/25 17:46:37;;;;;;;1.55;1.00;;;;;;;11.81;49.34;101009.38;8055190;28;20032;-72
2021/05/25 17:50:27;;;;;;;1.13;0.82;;;;;;;11.82;49.46;101019.78;8056755;28;20035;-72
2021/05/25 17:54:18;;;;;;;1.48;0.80;;;;;;;11.83;49.56;101010.09;8055573;28;20050;-72
2021/05/25 17:58:09;;;;;;;1.88;0.90;;;;;;;11.81;49.46;101004.13;8055706;28;20024;-72
2021/05/25 18:02:00;;;;;;;2.45;1.30;;;;;;;11.85;49.53;101010.84;8037729;28;20044;-72
2021/05/25 18:05:57;;;;;;;2.85;0.82;;;;;;;11.89;49.58;101014.97;8053372;28;20036;-71
2021/05/25 18:09:47;;;;;;;1.25;0.93;;;;;;;11.85;49.72;101001.16;8056415;28;20067;-71
2021/05/25 18:13:38;;;;;;;1.80;1.00;;;;;;;11.86;49.70;101008.09;8054734;28;20036;-71
2021/05/25 18:17:29;;;;;;;1.75;1.10;;;;;;;11.88;49.49;101008.00;8053833;28;20036;-73
2021/05/25 18:21:19;;;;;;;3.03;0.90;;;;;;;11.85;49.80;101014.34;8059904;28;20040;-73
2021/05/25 18:25:11;;;;;;;1.48;0.82;;;;;;;11.85;49.68;101013.50;8055971;28;20024;-72
2021/05/25 18:29:02;;;;;;;3.13;1.20;;;;;;;11.80;49.74;101013.81;8061012;28;20040;-72
2021/05/25 18:32:56;;;;;;;1.67;1.30;;;;;;;11.82;49.76;101013.66;8058746;28;20089;-70
2021/05/25 18:36:59;;;;;;;1.70;0.90;;;;;;;11.79;49.79;101020.00;8059872;28;20716;-72
2021/05/25 18:44:59;;;;;;;1.92;0.90;;;;;;;11.67;49.56;101031.38;8058489;28;20028;-71
2021/05/25 18:48:50;;;;;;;1.77;0.93;;;;;;;11.66;49.64;101039.34;8060398;28;20032;-70
2021/05/25 18:52:41;;;;;;;4.80;1.38;;;;;;;11.65;49.66;101035.06;8060141;28;20103;-72
2021/05/25 18:56:32;;;;;;;3.83;1.73;;;;;;;11.61;49.66;101037.88;8062067;28;20050;-72
2021/05/25 19:00:23;;;;;;;6.85;2.00;;;;;;;11.57;49.73;101041.66;8059040;28;20472;-71
2021/05/25 19:04:14;;;;;;;3.70;1.65;;;;;;;11.53;49.68;101039.31;8058202;28;20500;-71
2021/05/25 19:08:06;;;;;;;2.40;1.27;;;;;;;11.50;50.18;101042.16;8060906;28;20543;-71
2021/05/25 19:11:59;;;;;;;4.93;1.25;;;;;;;11.46;49.81;101041.53;8059435;28;20172;-71
2021/05/25 19:15:49;;;;;;;6.25;1.27;;;;;;;11.35;49.76;101035.31;8076384;28;20032;-72
2021/05/25 19:19:54;;;;;;;1.55;1.20;;;;;;;11.35;49.91;101033.50;8058997;28;20124;-71
2021/05/25 19:23:54;;;;;;;1.25;0.85;;;;;;;11.37;49.92;101049.19;8058763;28;20044;-70
2021/05/25 19:27:44;;;;;;;2.65;1.02;;;;;;;11.33;49.88;101047.69;8059449;28;20032;-70
2021/05/25 19:31:37;;;;;;;3.95;1.45;;;;;;;11.32;49.93;101054.75;8058402;28;20052;-70
2021/05/25 19:35:27;;;;;;;2.67;1.45;;;;;;;11.30;49.91;101058.44;8057295;28;20063;-70
2021/05/25 19:39:18;;;;;;;1.95;1.20;;;;;;;11.27;49.74;101061.28;8058364;28;20036;-72
2021/05/25 19:43:09;;;;;;;4.63;1.17;;;;;;;11.16;49.89;101043.53;8059338;28;20048;-72
2021/05/25 19:47:01;;;;;;;2.60;1.00;;;;;;;11.19;50.00;101069.66;8059406;28;20036;-69
2021/05/25 19:50:53;;;;;;;1.80;0.88;;;;;;;11.14;49.77;101061.22;8057880;28;20435;-72
2021/05/25 19:54:43;;;;;;;2.25;1.00;;;;;;;11.12;49.92;101070.97;8058449;28;20036;-72
2021/05/25 19:58:34;;;;;;;4.32;1.50;;;;;;;11.12;49.80;101081.50;8057518;28;20399;-73
2021/05/25 20:02:29;;;;;;;2.35;1.08;;;;;;;11.03;49.87;101072.44;8057976;28;20036;-74
2021/05/25 20:06:19;;;;;;;2.05;1.20;;;;;;;11.02;49.92;101086.53;8058498;28;20042;-74
2021/05/25 20:10:11;;;;;;;5.93;1.02;;;;;;;10.95;49.91;101081.75;8057322;28;20130;-74
2021/05/25 20:14:02;;;;;;;2.75;1.30;;;;;;;10.94;49.88;101090.59;8073776;28;20078;-74
2021/05/25 20:17:52;;;;;;;1.25;0.93;;;;;;;10.86;50.04;101087.63;8056030;28;20048;-73
2021/05/25 20:21:43;;;;;;;1.38;0.85;;;;;;;10.86;49.87;101085.81;8052121;28;20028;-75
2021/05/25 20:25:34;;;;;;;2.83;1.00;;;;;;;10.79;49.70;101087.13;8055451;28;20696;-75
2021/05/25 20:29:25;;;;;;;1.88;1.00;;;;;;;10.79;50.36;101084.50;8057863;28;20031;-70